• Join FlightAware (Why Join?)
  • Login
  • US Flag 
01:19PM EST


 

Airport Tracker/Info


-or-


 

Live Flight TrackerFlight Track Log ✈ CHH7741 ✈ 05-Jul-2013 ✈ ZGSZ / SZX - ZUGY / KWE

Flight Track Log - Related Links

Times and Time Zones

All times are in EDT time to prevent confusion due to time zone crossing. See the CHH7741 flight status page for this flight to view local times or setup timezone preferences in your user account.

Time Position Orientation Groundspeed Altitude Reporting Facility
EDT Latitude Longitude Course Direction KTS MPH feet Rate Location/Type
07:06PM 22.6902 113.7273 303° West  Level Estimated
07:07PM 22.7408 113.6422 303° West  Level Estimated
07:08PM 22.7914 113.5571 303° West  Level Estimated
07:09PM 22.8419 113.4718 303° West  Level Estimated
07:10PM 22.8925 113.3865 303° West  Level Estimated
07:10PM 22.6520 113.8060 303° West 24 28  Level FlightAware
07:11PM 22.9429 113.3011 303° West  Level Estimated
07:11PM 22.6540 113.8050 335° Northwest 26 30  Level FlightAware
07:11PM 22.6530 113.8030 242° Southwest 25 29 600 Level FlightAware
07:12PM 22.6500 113.8050 148° Southeast 74 85 840 Level FlightAware
07:12PM 22.6440 113.8080 155° Southeast 135 155 1,560 Level FlightAware
07:13PM 22.6240 113.8190 153° Southeast 173 199 1,100 2,520 Climbing FlightAware
07:13PM 22.6020 113.8300 155° Southeast 184 212 2,400 1,980 Climbing FlightAware
07:14PM 22.5770 113.8430 154° Southeast 233 268 3,000 1,680 Climbing FlightAware
07:14PM 22.5500 113.8590 151° Southeast 248 285 4,000 1,140 Climbing FlightAware
07:15PM 22.5210 113.8780 149° Southeast 263 303 4,100 120 Climbing FlightAware
07:15PM 22.5110 113.8960 121° Southeast 270 311 4,100 180 Level FlightAware
07:15PM 22.5090 113.9120 98° East 275 316 4,200 1,500 Climbing FlightAware
07:15PM 22.5200 113.9460 71° East 280 322 5,100 2,760 Climbing FlightAware
07:16PM 22.5380 113.9840 63° Northeast 285 328 6,800 3,300 Climbing FlightAware
07:16PM 22.5510 114.0010 50° Northeast 292 336 7,600 3,000 Climbing FlightAware
07:16PM 22.5640 114.0120 38° Northeast 295 339 8,200 2,880 Climbing FlightAware
07:17PM 22.5840 114.0210 23° Northeast 299 344 9,000 2,760 Climbing FlightAware
07:17PM 22.6410 114.0270 North 318 366 10,800 1,200 Climbing FlightAware
07:18PM 22.7320 114.0230 358° North 355 409 10,900 1,500 Climbing FlightAware
07:19PM 22.7970 113.9950 338° Northwest 331 381 13,300 3,120 Climbing FlightAware
07:20PM 22.8500 113.9720 338° Northwest 333 383 15,200 2,820 Climbing FlightAware
07:20PM 22.9160 113.9410 337° Northwest 339 390 17,300 2,580 Climbing FlightAware
07:21PM 22.9730 113.9120 335° Northwest 347 399 18,900 1,680 Climbing FlightAware
07:22PM 23.0400 113.8770 334° Northwest 360 414 19,700 840 Climbing FlightAware
07:22PM 23.0980 113.8410 330° Northwest 362 417 20,100 1,320 Climbing FlightAware
07:23PM 23.1470 113.7920 317° Northwest 368 423 21,500 1,800 Climbing FlightAware
07:24PM 23.2000 113.7360 316° Northwest 379 436 22,600 780 Climbing FlightAware
07:24PM 23.2480 113.6860 316° Northwest 382 440 22,600  Level FlightAware
07:25PM 23.3040 113.6270 316° Northwest 416 479 22,600  Level FlightAware
07:26PM 23.3600 113.5690 316° Northwest 426 490 22,600  Level FlightAware
07:26PM 23.4120 113.5140 316° Northwest 427 491 22,600  Level FlightAware
07:27PM 23.4720 113.4510 316° Northwest 427 491 22,600 240 Level FlightAware
07:28PM 23.5290 113.3910 316° Northwest 422 486 23,000 1,740 Climbing FlightAware
07:29PM 23.5880 113.3280 316° Northwest 400 460 25,100 2,160 Climbing FlightAware
07:29PM 23.6430 113.2690 316° Northwest 415 478 26,000 1,200 Climbing FlightAware
07:30PM 23.6900 113.1880 302° West 431 496 26,900 1,080 Climbing FlightAware
07:31PM 23.7220 113.1100 294° West 439 505 27,600 600 Climbing FlightAware
07:31PM 23.7480 113.0480 295° West 441 507 27,600  Level FlightAware
07:32PM 23.7870 112.9550 295° West 442 509 27,600  Level FlightAware
07:33PM 23.8240 112.8640 294° West 442 509 27,600  Level FlightAware
07:33PM 23.8510 112.7990 294° West 442 509 27,600  Level FlightAware
07:34PM 23.8900 112.7040 294° West 440 506 27,600  Level FlightAware
07:35PM 23.9220 112.6260 294° West 440 506 27,600  Level FlightAware
07:35PM 23.9590 112.5360 294° West 439 505 27,600  Level FlightAware
07:36PM 23.9900 112.4590 294° West 437 503 27,600  Level FlightAware
07:37PM 24.0250 112.3730 294° West 436 502 27,600  Level FlightAware
07:37PM 24.0620 112.2840 294° West 437 503 27,600  Level FlightAware
07:38PM 24.0910 112.2130 294° West 438 504 27,600  Level FlightAware
07:39PM 24.1240 112.1310 294° West 438 504 27,600  Level FlightAware
07:40PM 24.1780 111.9960 294° West 438 504 27,600  Level FlightAware
07:40PM 24.2120 111.9130 294° West 439 505 27,600  Level FlightAware
07:41PM 24.2400 111.8430 294° West 439 505 27,600  Level FlightAware
07:42PM 24.2900 111.7200 294° West 439 505 27,600  Level FlightAware
07:43PM 24.3170 111.6500 293° West 439 505 27,600  Level FlightAware
07:43PM 24.3640 111.5460 296° West 439 505 27,600  Level FlightAware
07:44PM 24.4060 111.4820 306° West 439 505 27,600  Level FlightAware
07:45PM 24.4420 111.4240 304° West 439 505 27,600  Level FlightAware
07:45PM 24.4790 111.3670 306° West 439 505 27,600  Level FlightAware
07:46PM 24.5260 111.2940 305° West 439 505 27,600  Level FlightAware
07:47PM 24.5610 111.2380 305° West 439 505 27,600  Level FlightAware
07:47PM 24.5970 111.1820 305° West 439 505 27,600  Level FlightAware
07:50PM 24.6963 110.9680 297° West  Level Estimated
07:51PM 24.7428 110.8675 297° West  Level Estimated
07:52PM 24.7892 110.7670 297° West  Level Estimated
07:53PM 24.8355 110.6664 297° West  Level Estimated
07:54PM 24.8818 110.5657 297° West  Level Estimated
07:55PM 24.9280 110.4650 297° West  Level Estimated
07:56PM 24.9741 110.3642 297° West  Level Estimated
07:57PM 25.0202 110.2633 297° West  Level Estimated
07:58PM 25.0662 110.1623 297° West  Level Estimated
07:59PM 25.1121 110.0612 297° West  Level Estimated
08:00PM 25.1579 109.9601 297° West  Level Estimated
08:01PM 25.2037 109.8589 297° West  Level Estimated
08:02PM 25.2494 109.7576 297° West  Level Estimated
08:03PM 25.2951 109.6562 296° West  Level Estimated
08:04PM 25.3407 109.5548 296° West  Level Estimated
08:05PM 25.3862 109.4533 296° West  Level Estimated
08:06PM 25.4316 109.3517 296° West  Level Estimated
08:07PM 25.4770 109.2501 296° West  Level Estimated
08:08PM 25.5223 109.1483 296° West  Level Estimated
08:09PM 25.5675 109.0465 296° West  Level Estimated
08:10PM 25.6127 108.9446 296° West  Level Estimated
08:11PM 25.6577 108.8427 296° West  Level Estimated
08:12PM 25.7028 108.7406 296° West  Level Estimated
08:13PM 25.7477 108.6385 296° West  Level Estimated
08:14PM 25.7926 108.5363 296° West  Level Estimated
08:15PM 25.8374 108.4340 296° West  Level Estimated
08:16PM 25.8821 108.3316 296° West  Level Estimated
08:17PM 25.9268 108.2292 296° West  Level Estimated
08:18PM 25.9713 108.1267 296° West  Level Estimated
08:19PM 26.0159 108.0241 296° West  Level Estimated
08:20PM 26.0603 107.9214 296° West  Level Estimated
08:21PM 26.1047 107.8187 296° West  Level Estimated
08:22PM 26.1490 107.7159 296° West  Level Estimated
08:23PM 26.1932 107.6130 296° West  Level Estimated
08:24PM 26.2373 107.5100 296° West  Level Estimated
08:25PM 26.2814 107.4070 296° West  Level Estimated
08:26PM 26.3254 107.3038 295° West  Level Estimated
08:27PM 26.3693 107.2006 295° West  Level Estimated
08:28PM 26.4132 107.0973 295° West  Level Estimated
08:29PM 26.4570 106.9939 295° West  Level Estimated
08:30PM 26.5007 106.8905 295° West  Level Estimated
08:31PM 26.5385 106.8007 295° West  Level Estimated
08:32PM 26.5385 106.8007 53° Northeast  Level Estimated
08:33PM 26.5385 106.8007 53° Northeast  Level Estimated
08:34PM 26.5385 106.8007 53° Northeast  Level Estimated
08:35PM 26.5385 106.8007 53° Northeast  Level Estimated
08:36PM 26.5385 106.8007 53° Northeast  Level Estimated
08:37PM 26.5385 106.8007 53° Northeast  Level Estimated
08:38PM 26.5385 106.8007 53° Northeast  Level Estimated